createdAt,value
2018-05-24T00:00:47.447Z,52.03
2018-05-24T00:02:48.880Z,52.03
2018-05-24T00:04:50.303Z,52.32
2018-05-24T00:06:51.735Z,52.32
2018-05-24T00:09:34.275Z,52.22
2018-05-24T00:11:35.974Z,52.22
2018-05-24T00:13:37.499Z,52.89
2018-05-24T00:15:39.076Z,52.12
2018-05-24T00:17:40.540Z,52.70
2018-05-24T00:19:42.034Z,52.70
2018-05-24T00:21:43.540Z,53.19
2018-05-24T00:23:44.975Z,53.38
2018-05-24T00:25:46.628Z,53.25
2018-05-24T00:27:48.279Z,53.25
2018-05-24T00:29:50.076Z,53.45
2018-05-24T00:31:51.603Z,54.22
2018-05-24T00:33:53.170Z,53.83
2018-05-24T00:35:55.006Z,54.50
2018-05-24T00:37:56.638Z,54.02
2018-05-24T00:39:58.197Z,54.31
2018-05-24T00:41:59.750Z,54.50
2018-05-24T00:44:01.249Z,54.69
2018-05-24T00:46:02.749Z,54.79
2018-05-24T00:48:04.222Z,55.56
2018-05-24T00:50:05.709Z,54.79
2018-05-24T00:52:07.254Z,54.79
2018-05-24T00:54:08.884Z,54.79
2018-05-24T00:56:10.511Z,54.79
2018-05-24T00:58:12.009Z,55.08
2018-05-24T01:00:13.432Z,54.89
2018-05-24T01:02:14.948Z,55.18
2018-05-24T01:04:16.561Z,55.66
2018-05-24T01:06:18.108Z,55.44
2018-05-24T01:08:19.561Z,55.05
2018-05-24T01:10:21.209Z,55.82
2018-05-24T01:12:22.865Z,55.82
2018-05-24T01:14:25.134Z,55.63
2018-05-24T01:16:26.614Z,55.63
2018-05-24T01:18:28.088Z,55.53
2018-05-24T01:20:29.594Z,55.53
2018-05-24T01:22:31.098Z,55.91
2018-05-24T01:24:32.653Z,55.73
2018-05-24T01:26:34.180Z,55.91
2018-05-24T01:28:35.713Z,55.24
2018-05-24T01:30:37.200Z,55.44
2018-05-24T01:32:38.677Z,55.91
2018-05-24T01:34:40.163Z,55.63
2018-05-24T01:36:41.699Z,55.82
2018-05-24T01:38:43.183Z,55.82
2018-05-24T01:40:44.720Z,56.01
2018-05-24T01:42:46.215Z,55.82
2018-05-24T01:44:47.813Z,55.63
2018-05-24T01:46:49.291Z,56.21
2018-05-24T01:48:50.782Z,56.27
2018-05-24T01:50:52.403Z,55.69
2018-05-24T01:52:53.938Z,55.69
2018-05-24T01:54:55.465Z,55.89
2018-05-24T01:56:56.989Z,55.51
2018-05-24T01:58:58.494Z,55.89
2018-05-24T02:00:59.988Z,55.51
2018-05-24T02:03:01.623Z,56.27
2018-05-24T02:05:03.444Z,55.89
2018-05-24T02:07:04.932Z,56.08
2018-05-24T02:09:06.629Z,55.89
2018-05-24T02:11:08.386Z,56.56
2018-05-24T02:13:09.967Z,56.18
2018-05-24T02:15:11.475Z,56.18
2018-05-24T02:17:12.995Z,56.66
2018-05-24T02:19:55.710Z,56.56
2018-05-24T02:21:57.140Z,56.08
2018-05-24T02:23:58.625Z,56.46
2018-05-24T02:25:59.976Z,56.56
2018-05-24T02:28:01.399Z,56.66
2018-05-24T02:30:02.913Z,56.82
2018-05-24T02:32:04.433Z,56.82
2018-05-24T02:34:05.889Z,57.33
2018-05-24T02:36:07.500Z,57.04
2018-05-24T02:38:08.808Z,57.43
2018-05-24T02:40:10.300Z,57.04
2018-05-24T02:42:11.944Z,57.14
2018-05-24T02:44:13.705Z,57.14
2018-05-24T02:46:15.362Z,57.11
2018-05-24T02:48:17.178Z,57.33
2018-05-24T02:50:18.881Z,57.90
2018-05-24T02:52:20.351Z,57.97
2018-05-24T02:54:21.854Z,58.10
2018-05-24T02:56:23.454Z,58.55
2018-05-24T02:58:24.891Z,58.55
2018-05-24T03:00:26.383Z,58.67
2018-05-24T03:02:27.924Z,58.96
2018-05-24T03:04:29.429Z,58.48
2018-05-24T03:06:31.271Z,59.25
2018-05-24T03:09:13.719Z,59.06
2018-05-24T03:11:15.150Z,58.74
2018-05-24T03:13:16.586Z,58.94
2018-05-24T03:15:17.997Z,58.36
2018-05-24T03:17:19.450Z,59.12
2018-05-24T03:20:01.860Z,58.64
2018-05-24T03:22:03.286Z,58.94
2018-05-24T03:24:04.726Z,58.94
2018-05-24T03:26:06.211Z,59.22
2018-05-24T03:28:07.645Z,59.03
2018-05-24T03:30:09.060Z,59.03
2018-05-24T03:32:10.504Z,59.12
2018-05-24T03:34:12.108Z,59.22
2018-05-24T03:36:13.938Z,59.03
2018-05-24T03:38:15.364Z,59.51
2018-05-24T03:40:16.890Z,59.32
2018-05-24T03:42:18.733Z,59.80
2018-05-24T03:44:20.384Z,59.89
2018-05-24T03:46:21.895Z,59.61
2018-05-24T03:48:23.404Z,60.08
2018-05-24T03:50:24.943Z,59.99
2018-05-24T03:52:26.465Z,59.61
2018-05-24T03:54:28.157Z,60.08
2018-05-24T03:56:29.748Z,60.66
2018-05-24T03:59:12.221Z,60.38
2018-05-24T04:01:13.643Z,60.82
2018-05-24T04:03:15.056Z,61.14
2018-05-24T04:05:16.628Z,60.75
2018-05-24T04:07:18.037Z,61.24
2018-05-24T04:10:00.648Z,61.33
2018-05-24T04:12:02.170Z,61.33
2018-05-24T04:14:03.487Z,61.81
2018-05-24T04:16:04.919Z,61.91
2018-05-24T04:18:47.337Z,61.91
2018-05-24T04:20:48.760Z,61.62
2018-05-24T04:22:50.186Z,62.19
2018-05-24T04:24:51.638Z,61.91
2018-05-24T04:26:53.659Z,62.07
2018-05-24T04:28:55.284Z,61.81
2018-05-24T04:30:56.709Z,62.10
2018-05-24T04:32:58.195Z,62.96
2018-05-24T04:34:59.676Z,62.58
2018-05-24T04:37:01.166Z,62.39
2018-05-24T04:39:02.643Z,62.96
2018-05-24T04:41:04.133Z,63.16
2018-05-24T04:43:05.610Z,64.02
2018-05-24T04:45:07.146Z,63.92
2018-05-24T04:47:08.718Z,63.92
2018-05-24T04:49:10.305Z,64.40
2018-05-24T04:51:11.814Z,63.92
2018-05-24T04:53:13.378Z,64.02
2018-05-24T04:55:14.868Z,62.99
2018-05-24T04:57:16.354Z,63.67
2018-05-24T04:59:58.789Z,63.67
2018-05-24T05:02:00.234Z,63.48
2018-05-24T05:04:01.690Z,62.61
2018-05-24T05:06:03.205Z,61.55
2018-05-24T05:08:45.624Z,60.91
2018-05-24T05:10:47.051Z,61.49
2018-05-24T05:12:48.478Z,60.43
2018-05-24T05:14:49.940Z,59.86
2018-05-24T05:16:51.358Z,59.76
2018-05-24T05:18:52.780Z,60.72
2018-05-24T05:20:54.287Z,60.05
2018-05-24T05:22:55.711Z,60.24
2018-05-24T05:24:57.142Z,61.68
2018-05-24T05:26:58.583Z,61.01
2018-05-24T05:29:00.117Z,61.49
2018-05-24T05:31:01.650Z,61.49
2018-05-24T05:33:03.163Z,60.94
2018-05-24T05:35:04.606Z,61.52
2018-05-24T05:37:06.113Z,60.85
2018-05-24T05:39:07.634Z,59.34
2018-05-24T05:41:09.124Z,58.67
2018-05-24T05:43:10.660Z,56.00
2018-05-24T05:45:12.125Z,55.26
2018-05-24T05:47:13.630Z,55.35
2018-05-24T05:49:15.149Z,54.32
2018-05-24T05:51:16.673Z,52.04
2018-05-24T05:53:18.182Z,49.58
2018-05-24T05:55:19.655Z,48.83
2018-05-24T05:57:21.160Z,46.66
2018-05-24T05:59:22.861Z,46.27
2018-05-24T06:01:24.417Z,47.05
2018-05-24T06:03:26.132Z,46.17
2018-05-24T06:05:27.975Z,46.95
2018-05-24T06:07:29.833Z,46.73
2018-05-24T06:09:31.382Z,47.48
2018-05-24T06:11:32.841Z,48.54
2018-05-24T06:13:34.373Z,49.68
2018-05-24T06:15:35.882Z,49.87
2018-05-24T06:17:37.343Z,50.23
2018-05-24T06:19:38.874Z,51.97
2018-05-24T06:21:40.389Z,51.10
2018-05-24T06:23:42.050Z,52.55
2018-05-24T06:25:43.804Z,51.26
2018-05-24T06:27:45.646Z,50.23
2018-05-24T06:29:47.424Z,50.90
2018-05-24T06:31:49.172Z,50.23
2018-05-24T06:33:50.989Z,51.20
2018-05-24T06:35:52.941Z,49.84
2018-05-24T06:37:54.641Z,50.23
2018-05-24T06:39:56.143Z,50.54
2018-05-24T06:41:57.675Z,51.03
2018-05-24T06:43:59.363Z,49.96
2018-05-24T06:46:00.877Z,48.81
2018-05-24T06:48:02.439Z,50.26
2018-05-24T06:50:03.920Z,50.54
2018-05-24T06:52:05.434Z,49.96
2018-05-24T06:54:07.436Z,48.93
2018-05-24T06:56:08.951Z,49.00
2018-05-24T06:58:10.523Z,49.29
2018-05-24T07:00:12.064Z,51.51
2018-05-24T07:02:13.533Z,51.00
2018-05-24T07:04:15.024Z,52.35
2018-05-24T07:06:16.507Z,52.33
2018-05-24T07:08:17.953Z,53.77
2018-05-24T07:10:19.393Z,54.35
2018-05-24T07:12:20.823Z,53.87
2018-05-24T07:14:22.556Z,56.09
2018-05-24T07:16:23.992Z,55.41
2018-05-24T07:18:25.416Z,55.02
2018-05-24T07:20:26.847Z,54.44
2018-05-24T07:22:28.276Z,55.29
2018-05-24T07:24:30.324Z,55.09
2018-05-24T07:26:31.718Z,56.63
2018-05-24T07:28:33.246Z,56.35
2018-05-24T07:30:34.754Z,56.05
2018-05-24T07:32:36.268Z,55.57
2018-05-24T07:34:37.721Z,56.15
2018-05-24T07:36:39.197Z,56.82
2018-05-24T07:38:40.627Z,56.05
2018-05-24T07:40:42.167Z,56.57
2018-05-24T07:42:44.513Z,57.72
2018-05-24T07:44:45.982Z,57.72
2018-05-24T07:46:47.421Z,55.60
2018-05-24T07:48:48.921Z,54.96
2018-05-24T07:50:50.384Z,55.34
2018-05-24T07:52:51.811Z,56.79
2018-05-24T07:54:53.330Z,55.54
2018-05-24T07:56:54.709Z,54.66
2018-05-24T07:58:56.146Z,54.86
2018-05-24T08:00:57.581Z,55.56
2018-05-24T08:02:59.010Z,54.79
2018-05-24T08:05:00.446Z,54.53
2018-05-24T08:07:01.877Z,54.53
2018-05-24T08:09:03.321Z,54.82
2018-05-24T08:11:04.759Z,56.20
2018-05-24T08:13:06.195Z,52.91
2018-05-24T08:15:07.626Z,52.36
2018-05-24T08:17:09.057Z,53.23
2018-05-24T08:19:10.498Z,50.79
2018-05-24T08:21:11.929Z,53.23
2018-05-24T08:23:13.357Z,53.11
2018-05-24T08:25:14.790Z,53.71
2018-05-24T08:27:16.248Z,55.26
2018-05-24T08:29:17.697Z,51.59
2018-05-24T08:31:19.163Z,51.61
2018-05-24T08:33:20.684Z,51.32
2018-05-24T08:35:22.113Z,50.93
2018-05-24T08:37:23.594Z,50.33
2018-05-24T08:39:25.186Z,50.62
2018-05-24T08:41:26.728Z,52.17
2018-05-24T08:43:28.450Z,51.39
2018-05-24T08:45:30.016Z,52.07
2018-05-24T08:47:31.540Z,50.93
2018-05-24T08:49:33.023Z,52.22
2018-05-24T08:51:34.477Z,51.15
2018-05-24T08:53:35.991Z,53.77
2018-05-24T08:55:37.477Z,51.66
2018-05-24T08:57:38.972Z,49.85
2018-05-24T08:59:40.471Z,50.62
2018-05-24T09:01:41.985Z,49.46
2018-05-24T09:03:43.427Z,50.24
2018-05-24T09:05:44.857Z,50.82
2018-05-24T09:07:46.299Z,49.73
2018-05-24T09:09:47.742Z,49.46
2018-05-24T09:11:49.181Z,49.75
2018-05-24T09:13:50.612Z,49.15
2018-05-24T09:15:52.052Z,49.44
2018-05-24T09:17:53.488Z,50.09
2018-05-24T09:19:54.950Z,49.80
2018-05-24T09:21:56.428Z,51.35
2018-05-24T09:23:57.873Z,51.44
2018-05-24T09:25:59.257Z,50.93
2018-05-24T09:28:00.696Z,52.19
2018-05-24T09:30:02.129Z,51.81
2018-05-24T09:32:03.566Z,52.39
2018-05-24T09:34:05.051Z,52.99
2018-05-24T09:36:06.505Z,53.96
2018-05-24T09:38:07.946Z,51.54
2018-05-24T09:40:09.386Z,52.58
2018-05-24T09:42:10.837Z,52.29
2018-05-24T09:44:12.304Z,52.22
2018-05-24T09:46:13.723Z,54.61
2018-05-24T09:48:15.164Z,52.39
2018-05-24T09:50:16.600Z,53.47
2018-05-24T09:52:18.059Z,53.67
2018-05-24T09:54:19.644Z,53.67
2018-05-24T09:56:21.394Z,53.77
2018-05-24T09:58:23.091Z,54.05
2018-05-24T10:00:25.106Z,53.67
2018-05-24T10:02:26.798Z,54.63
2018-05-24T10:04:28.534Z,54.66
2018-05-24T10:06:30.406Z,53.50
2018-05-24T10:08:32.124Z,52.05
2018-05-24T10:10:33.756Z,52.34
2018-05-24T10:12:35.412Z,53.89
2018-05-24T10:14:37.183Z,52.63
2018-05-24T10:16:38.716Z,54.08
2018-05-24T10:18:40.290Z,52.92
2018-05-24T10:20:41.966Z,53.04
2018-05-24T10:22:43.501Z,53.69
2018-05-24T10:24:45.119Z,52.53
2018-05-24T10:26:46.665Z,53.72
2018-05-24T10:28:48.180Z,51.59
2018-05-24T10:30:49.716Z,51.72
2018-05-24T10:32:51.264Z,52.42
2018-05-24T10:34:52.759Z,51.93
2018-05-24T10:36:54.271Z,50.89
2018-05-24T10:38:55.787Z,49.80
2018-05-24T10:40:57.425Z,50.57
2018-05-24T10:42:59.377Z,49.51
2018-05-24T10:45:00.904Z,49.80
2018-05-24T10:47:02.443Z,50.09
2018-05-24T10:49:03.921Z,49.05
2018-05-24T10:51:05.570Z,49.37
2018-05-24T10:53:07.059Z,49.97
2018-05-24T10:55:08.602Z,47.06
2018-05-24T10:57:10.140Z,47.42
2018-05-24T10:59:11.730Z,46.65
2018-05-24T11:01:13.292Z,47.23
2018-05-24T11:03:14.931Z,47.64
2018-05-24T11:05:16.442Z,47.35
2018-05-24T11:07:17.996Z,47.16
2018-05-24T11:09:19.554Z,45.58
2018-05-24T11:11:21.083Z,47.11
2018-05-24T11:13:22.657Z,47.19
2018-05-24T11:15:24.589Z,46.89
2018-05-24T11:17:26.468Z,47.57
2018-05-24T11:19:28.060Z,48.52
2018-05-24T11:21:30.226Z,48.61
2018-05-24T11:23:31.725Z,49.75
2018-05-24T11:25:33.427Z,49.17
2018-05-24T11:27:34.982Z,49.44
2018-05-24T11:30:19.964Z,49.73
2018-05-24T11:32:21.401Z,49.44
2018-05-24T11:34:22.859Z,50.28
2018-05-24T11:36:24.370Z,49.80
2018-05-24T11:38:25.813Z,50.57
2018-05-24T11:41:08.268Z,51.06
2018-05-24T11:43:09.794Z,51.06
2018-05-24T11:45:11.232Z,51.83
2018-05-24T11:47:12.680Z,51.44
2018-05-24T11:49:14.143Z,51.35
2018-05-24T11:51:15.631Z,51.35
2018-05-24T11:53:17.445Z,51.06
2018-05-24T11:55:19.241Z,51.56
2018-05-24T11:57:21.098Z,51.66
2018-05-24T12:00:03.776Z,51.47
2018-05-24T12:02:05.296Z,50.70
2018-05-24T12:04:06.714Z,50.82
2018-05-24T12:06:08.301Z,50.14
2018-05-24T12:08:09.745Z,49.95
2018-05-24T12:10:52.178Z,48.97
2018-05-24T12:12:53.612Z,49.07
2018-05-24T12:14:55.175Z,51.23
2018-05-24T12:16:56.608Z,49.17
2018-05-24T12:19:39.048Z,50.33
2018-05-24T12:21:40.499Z,52.46
2018-05-24T12:23:42.028Z,51.40
2018-05-24T12:25:43.722Z,50.82
2018-05-24T12:27:45.267Z,50.52
2018-05-24T12:30:27.713Z,51.40
2018-05-24T12:32:29.157Z,50.70
2018-05-24T12:34:30.592Z,51.30
2018-05-24T12:36:32.119Z,50.40
2018-05-24T12:38:33.639Z,51.08
2018-05-24T12:40:35.065Z,50.98
2018-05-24T12:42:36.513Z,52.14
2018-05-24T12:44:38.058Z,51.54
2018-05-24T12:46:39.608Z,51.56
2018-05-24T12:48:41.223Z,51.73
2018-05-24T12:50:42.672Z,51.64
2018-05-24T12:52:44.522Z,51.83
2018-05-24T12:54:46.269Z,52.41
2018-05-24T12:56:48.007Z,52.51
2018-05-24T12:59:30.558Z,54.05
2018-05-24T13:01:32.293Z,53.11
2018-05-24T13:03:33.721Z,52.44
2018-05-24T13:05:35.151Z,53.02
2018-05-24T13:07:36.584Z,52.75
2018-05-24T13:09:38.035Z,51.66
2018-05-24T13:11:39.813Z,53.04
2018-05-24T13:13:41.300Z,52.14
2018-05-24T13:15:42.771Z,53.59
2018-05-24T13:17:44.259Z,54.47
2018-05-24T13:19:45.754Z,53.99
2018-05-24T13:21:47.353Z,54.17
2018-05-24T13:23:48.784Z,53.89
2018-05-24T13:25:50.222Z,54.85
2018-05-24T13:27:51.665Z,55.11
2018-05-24T13:29:53.100Z,56.02
2018-05-24T13:31:54.596Z,56.18
2018-05-24T13:33:55.985Z,57.54
2018-05-24T13:35:57.428Z,58.02
2018-05-24T13:37:58.853Z,58.40
2018-05-24T13:40:01.299Z,58.21
2018-05-24T13:42:02.744Z,59.08
2018-05-24T13:44:04.170Z,58.09
2018-05-24T13:46:05.619Z,58.18
2018-05-24T13:48:07.055Z,58.47
2018-05-24T13:50:08.480Z,58.18
2018-05-24T13:52:10.000Z,58.86
2018-05-24T13:54:11.454Z,58.18
2018-05-24T13:56:12.887Z,59.44
2018-05-24T13:58:14.348Z,59.34
2018-05-24T14:00:15.758Z,59.53
2018-05-24T14:02:17.199Z,58.67
2018-05-24T14:04:18.632Z,59.12
2018-05-24T14:06:20.071Z,58.95
2018-05-24T14:08:21.512Z,58.95
2018-05-24T14:10:22.946Z,58.57
2018-05-24T14:12:24.383Z,59.44
2018-05-24T14:14:25.896Z,60.02
2018-05-24T14:16:27.324Z,59.05
2018-05-24T14:18:28.756Z,58.86
2018-05-24T14:20:30.193Z,58.76
2018-05-24T14:22:31.635Z,59.92
2018-05-24T14:24:33.066Z,59.51
2018-05-24T14:26:34.567Z,60.11
2018-05-24T14:29:16.996Z,61.15
2018-05-24T14:31:18.424Z,61.99
2018-05-24T14:33:19.961Z,62.95
2018-05-24T14:35:21.575Z,63.70
2018-05-24T14:37:23.175Z,63.63
2018-05-24T14:39:24.595Z,63.89
2018-05-24T14:41:26.060Z,63.70
2018-05-24T14:43:27.523Z,63.92
2018-05-24T14:45:29.061Z,64.50
2018-05-24T14:47:30.677Z,63.82
2018-05-24T14:49:32.235Z,65.24
2018-05-24T14:51:33.803Z,64.86
2018-05-24T14:53:35.403Z,65.05
2018-05-24T14:55:36.975Z,65.43
2018-05-24T14:57:38.608Z,66.01
2018-05-24T14:59:40.059Z,66.49
2018-05-24T15:01:41.680Z,66.85
2018-05-24T15:03:43.394Z,67.43
2018-05-24T15:05:45.010Z,66.85
2018-05-24T15:07:46.605Z,67.14
2018-05-24T15:09:48.436Z,67.33
2018-05-24T15:11:49.963Z,66.94
2018-05-24T15:13:51.690Z,67.81
2018-05-24T15:15:53.233Z,66.88
2018-05-24T15:17:55.135Z,66.27
2018-05-24T15:19:56.785Z,66.46
2018-05-24T15:21:58.387Z,66.85
2018-05-24T15:24:00.317Z,66.46
2018-05-24T15:26:02.284Z,66.85
2018-05-24T15:28:04.279Z,66.17
2018-05-24T15:30:06.097Z,66.46
2018-05-24T15:32:07.872Z,66.27
2018-05-24T15:34:09.659Z,66.08
2018-05-24T15:36:11.622Z,66.85
2018-05-24T15:38:13.477Z,66.66
2018-05-24T15:40:15.411Z,65.98
2018-05-24T15:42:17.305Z,66.17
2018-05-24T15:44:19.741Z,66.46
2018-05-24T15:46:21.914Z,66.36
2018-05-24T15:48:24.354Z,66.08
2018-05-24T15:50:26.173Z,66.46
2018-05-24T15:52:28.083Z,66.46
2018-05-24T15:54:29.982Z,66.27
2018-05-24T15:56:31.845Z,66.17
2018-05-24T15:58:33.744Z,66.85
2018-05-24T16:00:35.364Z,67.23
2018-05-24T16:02:37.257Z,66.66
2018-05-24T16:04:39.230Z,65.62
2018-05-24T16:06:40.888Z,65.62
2018-05-24T16:08:42.534Z,65.14
2018-05-24T16:10:44.296Z,65.24
2018-05-24T16:12:45.940Z,65.05
2018-05-24T16:14:47.522Z,64.66
2018-05-24T16:16:49.795Z,64.66
2018-05-24T16:19:33.325Z,64.66
2018-05-24T16:21:35.541Z,65.05
2018-05-24T16:23:37.085Z,64.86
2018-05-24T16:25:38.835Z,65.53
2018-05-24T16:27:40.499Z,65.14
2018-05-24T16:30:22.936Z,65.43
2018-05-24T16:32:24.640Z,65.72
2018-05-24T16:34:26.399Z,64.95
2018-05-24T16:36:28.007Z,65.05
2018-05-24T16:38:29.736Z,65.24
2018-05-24T16:40:31.655Z,65.53
2018-05-24T16:42:33.234Z,64.95
2018-05-24T16:44:35.126Z,65.53
2018-05-24T16:46:36.823Z,65.05
2018-05-24T16:48:38.659Z,64.56
2018-05-24T16:50:40.458Z,64.56
2018-05-24T16:52:42.361Z,65.14
2018-05-24T16:54:44.161Z,64.86
2018-05-24T16:56:45.950Z,65.14
2018-05-24T16:58:47.793Z,64.95
2018-05-24T17:00:49.755Z,65.05
2018-05-24T17:02:51.699Z,64.47
2018-05-24T17:04:53.528Z,64.66
2018-05-24T17:06:55.312Z,64.47
2018-05-24T17:08:58.240Z,64.31
2018-05-24T17:10:59.922Z,64.40
2018-05-24T17:13:01.785Z,64.28
2018-05-24T17:15:03.494Z,64.59
2018-05-24T17:17:06.664Z,64.11
2018-05-24T17:19:08.967Z,64.50
2018-05-24T17:21:10.837Z,63.92
2018-05-24T17:23:12.979Z,63.82
2018-05-24T17:25:14.745Z,63.63
2018-05-24T17:27:16.561Z,63.92
2018-05-24T17:29:18.531Z,63.82
2018-05-24T17:31:20.565Z,64.50
2018-05-24T17:33:22.624Z,64.21
2018-05-24T17:35:24.408Z,64.11
2018-05-24T17:37:26.261Z,64.50
2018-05-24T17:39:28.023Z,64.66
2018-05-24T17:41:30.101Z,65.08
2018-05-24T17:43:32.251Z,65.17
2018-05-24T17:45:34.013Z,64.95
2018-05-24T17:47:35.689Z,65.14
2018-05-24T17:49:38.004Z,64.86
2018-05-24T17:51:40.187Z,65.05
2018-05-24T17:53:42.375Z,64.59
2018-05-24T17:55:44.194Z,65.27
2018-05-24T17:57:46.024Z,64.76
2018-05-24T17:59:47.907Z,65.05
2018-05-24T18:01:49.692Z,65.14
2018-05-24T18:03:51.256Z,64.76
2018-05-24T18:05:53.030Z,65.14
2018-05-24T18:07:54.847Z,65.43
2018-05-24T18:09:56.740Z,65.17
2018-05-24T18:11:58.491Z,64.56
2018-05-24T18:13:59.999Z,64.95
2018-05-24T18:16:01.504Z,64.56
2018-05-24T18:18:02.964Z,65.08
2018-05-24T18:20:04.494Z,65.05
2018-05-24T18:22:05.938Z,65.62
2018-05-24T18:24:07.376Z,65.14
2018-05-24T18:26:08.802Z,65.37
2018-05-24T18:28:10.276Z,65.43
2018-05-24T18:30:11.706Z,65.43
2018-05-24T18:32:13.146Z,65.62
2018-05-24T18:34:14.574Z,65.53
2018-05-24T18:36:16.135Z,65.62
2018-05-24T18:38:17.550Z,65.53
2018-05-24T18:40:18.994Z,66.30
2018-05-24T18:42:20.436Z,66.20
2018-05-24T18:44:21.862Z,66.49
2018-05-24T18:46:23.299Z,66.69
2018-05-24T18:48:24.760Z,67.07
2018-05-24T18:50:26.196Z,66.78
2018-05-24T18:52:27.638Z,66.69
2018-05-24T18:54:29.170Z,66.78
2018-05-24T18:56:30.701Z,66.78
2018-05-24T18:58:32.245Z,66.69
2018-05-24T19:00:33.882Z,66.69
2018-05-24T19:02:35.940Z,67.07
2018-05-24T19:04:37.716Z,67.27
2018-05-24T19:06:39.689Z,67.07
2018-05-24T19:08:41.755Z,66.49
2018-05-24T19:10:43.382Z,66.88
2018-05-24T19:12:45.129Z,67.85
2018-05-24T19:14:47.012Z,67.23
2018-05-24T19:16:48.763Z,66.88
2018-05-24T19:18:50.317Z,67.17
2018-05-24T19:20:52.042Z,66.94
2018-05-24T19:22:53.763Z,67.14
2018-05-24T19:24:55.643Z,67.46
2018-05-24T19:26:57.373Z,67.33
2018-05-24T19:28:58.908Z,67.52
2018-05-24T19:31:00.454Z,68.29
2018-05-24T19:33:01.980Z,68.19
2018-05-24T19:35:03.525Z,67.62
2018-05-24T19:37:05.031Z,68.77
2018-05-24T19:39:06.536Z,68.45
2018-05-24T19:41:08.041Z,68.01
2018-05-24T19:43:09.611Z,68.77
2018-05-24T19:45:11.091Z,68.49
2018-05-24T19:47:12.655Z,68.65
2018-05-24T19:49:14.129Z,68.59
2018-05-24T19:51:16.379Z,68.59
2018-05-24T19:53:18.117Z,68.74
2018-05-24T19:55:19.998Z,68.87
2018-05-24T19:57:21.714Z,68.49
2018-05-24T19:59:23.452Z,68.74
2018-05-24T20:01:25.286Z,68.77
2018-05-24T20:03:27.228Z,68.45
2018-05-24T20:05:28.977Z,68.59
2018-05-24T20:07:30.703Z,68.59
2018-05-24T20:09:32.491Z,68.49
2018-05-24T20:11:33.977Z,68.59
2018-05-24T20:13:35.483Z,68.55
2018-05-24T20:15:37.020Z,68.74
2018-05-24T20:17:38.693Z,68.74
2018-05-24T20:19:40.805Z,68.93
2018-05-24T20:21:42.674Z,68.84
2018-05-24T20:23:44.414Z,68.65
2018-05-24T20:25:46.211Z,69.03
2018-05-24T20:27:48.099Z,68.55
2018-05-24T20:29:50.093Z,69.03
2018-05-24T20:31:51.914Z,69.13
2018-05-24T20:33:53.408Z,69.61
2018-05-24T20:35:55.465Z,69.51
2018-05-24T20:37:57.033Z,69.51
2018-05-24T20:39:58.542Z,69.32
2018-05-24T20:42:00.204Z,69.71
2018-05-24T20:44:01.720Z,69.80
2018-05-24T20:46:03.638Z,70.00
2018-05-24T20:48:05.123Z,69.90
2018-05-24T20:50:06.680Z,70.48
2018-05-24T20:52:08.319Z,70.86
2018-05-24T20:54:10.185Z,70.48
2018-05-24T20:56:11.633Z,70.96
2018-05-24T20:58:13.243Z,71.64
2018-05-24T21:00:15.034Z,72.02
2018-05-24T21:02:16.701Z,73.08
2018-05-24T21:04:18.336Z,73.91
2018-05-24T21:06:19.990Z,73.91
2018-05-24T21:08:21.628Z,74.58
2018-05-24T21:10:23.178Z,74.97
2018-05-24T21:12:24.829Z,74.97
2018-05-24T21:14:26.387Z,74.78
2018-05-24T21:16:28.026Z,75.26
2018-05-24T21:18:30.050Z,76.13
2018-05-24T21:20:31.916Z,77.06
2018-05-24T21:22:33.398Z,77.67
2018-05-24T21:24:34.980Z,77.63
2018-05-24T21:26:36.478Z,78.06
2018-05-24T21:28:38.261Z,78.59
2018-05-24T21:30:39.790Z,79.75
2018-05-24T21:32:41.547Z,79.46
2018-05-24T21:34:43.298Z,79.75
2018-05-24T21:36:45.208Z,80.71
2018-05-24T21:38:47.050Z,80.62
2018-05-24T21:40:48.798Z,81.58
2018-05-24T21:42:50.650Z,81.58
2018-05-24T21:44:52.476Z,81.87
2018-05-24T21:46:54.318Z,82.26
2018-05-24T21:48:56.020Z,81.48
2018-05-24T21:50:57.583Z,81.87
2018-05-24T21:52:59.141Z,82.64
2018-05-24T21:55:00.653Z,82.83
2018-05-24T21:57:02.225Z,82.74
2018-05-24T21:59:03.759Z,82.83
2018-05-24T22:01:05.284Z,81.48
2018-05-24T22:03:06.897Z,81.96
2018-05-24T22:05:08.428Z,81.68
2018-05-24T22:07:09.963Z,82.60
2018-05-24T22:09:11.481Z,81.93
2018-05-24T22:11:13.081Z,82.60
2018-05-24T22:13:15.078Z,82.31
2018-05-24T22:15:17.075Z,81.83
2018-05-24T22:17:18.818Z,81.93
2018-05-24T22:19:20.494Z,82.41
2018-05-24T22:21:22.275Z,81.54
2018-05-24T22:23:24.108Z,81.25
2018-05-24T22:25:25.707Z,81.54
2018-05-24T22:27:27.517Z,82.02
2018-05-24T22:29:29.028Z,82.02
2018-05-24T22:31:30.543Z,81.73
2018-05-24T22:33:32.186Z,82.21
2018-05-24T22:35:33.857Z,82.21
2018-05-24T22:37:35.789Z,82.12
2018-05-24T22:39:37.577Z,82.12
2018-05-24T22:41:39.107Z,82.12
2018-05-24T22:43:40.628Z,82.02
2018-05-24T22:45:42.143Z,81.25
2018-05-24T22:47:43.668Z,81.06
2018-05-24T22:49:45.203Z,81.16
2018-05-24T22:51:46.719Z,81.16
2018-05-24T22:53:48.219Z,81.54
2018-05-24T22:55:49.725Z,81.54
2018-05-24T22:57:51.296Z,81.16
2018-05-24T22:59:52.837Z,80.96
2018-05-24T23:01:54.565Z,80.96
2018-05-24T23:03:56.580Z,81.54
2018-05-24T23:05:58.349Z,81.54
2018-05-24T23:08:00.197Z,81.54
2018-05-24T23:10:01.933Z,81.35
2018-05-24T23:12:03.468Z,81.06
2018-05-24T23:14:05.219Z,81.16
2018-05-24T23:16:06.766Z,80.87
2018-05-24T23:18:08.287Z,81.06
2018-05-24T23:20:09.907Z,80.96
2018-05-24T23:22:11.421Z,81.25
2018-05-24T23:24:13.056Z,80.68
2018-05-24T23:26:14.903Z,80.68
2018-05-24T23:28:16.591Z,80.68
2018-05-24T23:30:18.268Z,80.48
2018-05-24T23:32:20.147Z,80.29
2018-05-24T23:34:21.676Z,79.71
2018-05-24T23:36:23.188Z,79.81
2018-05-24T23:38:24.711Z,79.52
2018-05-24T23:40:26.319Z,79.23
2018-05-24T23:42:27.983Z,80.00
2018-05-24T23:44:29.729Z,79.13
2018-05-24T23:46:31.386Z,79.61
2018-05-24T23:48:33.290Z,79.33
2018-05-24T23:50:34.809Z,79.61
2018-05-24T23:52:36.441Z,79.52
2018-05-24T23:54:38.151Z,79.81
2018-05-24T23:56:39.707Z,80.00
2018-05-24T23:58:41.273Z,79.71
